KVYS/VYS METAR and TAF weather

Enter ICAO airport designator
Station Type Date Time Source
KVYS METAR 2021/05/10 23:30 UTC NOAA

KVYS 102330Z AUTO 09008KT 10SM OVC060 12/07 A3014 RMK AO2 T01150067


Station Type Date Time Source
KVYS Decoded METAR 2021/05/10 23:30 UTC NOAA

Peru, Illinois Valley Regional-Walter A Duncan Field Airport, IL, United States (KVYS) 41-21-07N 089-09-11W
May 10, 2021 - 07:30 PM EDT / 2021.05.10 2330 UTC
Wind: from the E (090 degrees) at 9 MPH (8 KT):0
Visibility: 10 mile(s):0
Sky conditions: overcast
Temperature: 52.7 F (11.5 C)
Dew Point: 44.1 F (6.7 C)
Relative Humidity: 72%
Pressure (altimeter): 30.14 in. Hg (1020 hPa)
ob: KVYS 102330Z AUTO 09008KT 10SM OVC060 12/07 A3014 RMK AO2 T01150067
cycle: 23

Station Type Date Time Source
KVYS TAF UTC NOAA

Error!

Example: see airport list